Time;durP1;ratioP1;P1;durP2;ratioP2;P2;SDS_P1;SDS_P2;PMS_P1;PMS_P2;Temp;Humidity;BMP_temperature;BMP_pressure;BME280_temperature;BME280_humidity;BME280_pressure;Samples;Min_cycle;Max_cycle;Signal;HPM_P1;HPM_P2
2023/08/06 00:00:18;;;;;;;6.90;3.43;;;14.40;99.90;;;;;;5093149;28;20122;-52
2023/08/06 00:02:43;;;;;;;7.17;3.77;;;14.40;99.90;;;;;;5094108;28;20094;-51
2023/08/06 00:05:09;;;;;;;5.67;3.10;;;14.40;99.90;;;;;;5094143;28;20043;-50
2023/08/06 00:07:35;;;;;;;6.60;3.40;;;14.40;99.90;;;;;;5094299;28;20367;-48
2023/08/06 00:10:00;;;;;;;5.60;3.00;;;14.40;99.90;;;;;;5094637;28;20047;-49
2023/08/06 00:12:26;;;;;;;6.10;2.97;;;14.40;99.90;;;;;;5094155;28;20044;-50
2023/08/06 00:14:52;;;;;;;5.77;2.97;;;14.40;99.90;;;;;;5093990;28;20702;-50
2023/08/06 00:17:18;;;;;;;;;;;14.40;99.90;;;;;;5094380;28;20048;-52
2023/08/06 00:19:44;;;;;;;6.45;3.05;;;14.40;99.90;;;;;;5094033;28;20386;-52
2023/08/06 00:22:09;;;;;;;6.57;2.80;;;14.40;99.90;;;;;;5093063;28;20051;-51
2023/08/06 00:24:35;;;;;;;6.33;3.30;;;14.40;99.90;;;;;;5093729;28;20058;-49
2023/08/06 00:27:02;;;;;;;6.43;3.60;;;14.40;99.90;;;;;;5093973;28;20641;-48
2023/08/06 00:29:27;;;;;;;6.40;3.22;;;14.40;99.90;;;;;;5092944;28;20059;-48
2023/08/06 00:31:53;;;;;;;5.80;3.08;;;14.40;99.90;;;;;;5093742;28;20509;-49
2023/08/06 00:34:19;;;;;;;6.87;3.60;;;14.40;99.90;;;;;;5094152;28;20123;-49
2023/08/06 00:36:44;;;;;;;6.53;2.97;;;14.40;99.90;;;;;;5093874;28;20641;-49
2023/08/06 00:39:10;;;;;;;6.83;3.23;;;14.30;99.90;;;;;;5093871;28;20044;-50
2023/08/06 00:41:36;;;;;;;6.25;3.38;;;14.30;99.90;;;;;;5093953;28;20376;-49
2023/08/06 00:44:02;;;;;;;5.93;2.97;;;14.30;99.90;;;;;;5093730;28;20177;-50
2023/08/06 00:46:28;;;;;;;7.40;3.38;;;14.30;99.90;;;;;;5093588;28;20281;-52
2023/08/06 00:48:55;;;;;;;6.20;3.03;;;14.30;99.90;;;;;;5094123;28;20040;-49
2023/08/06 00:51:22;;;;;;;5.75;3.35;;;14.30;99.90;;;;;;5093783;28;20048;-49
2023/08/06 00:53:49;;;;;;;6.38;3.10;;;14.30;99.90;;;;;;5093736;28;20083;-50
2023/08/06 00:56:15;;;;;;;5.80;3.28;;;14.30;99.90;;;;;;5093576;28;20565;-49
2023/08/06 00:58:41;;;;;;;7.18;3.00;;;14.30;99.90;;;;;;5092480;28;20127;-48
2023/08/06 01:01:06;;;;;;;6.63;3.20;;;14.30;99.90;;;;;;5093488;28;20149;-50
2023/08/06 01:03:32;;;;;;;6.95;3.58;;;14.30;99.90;;;;;;5094098;28;20069;-48
2023/08/06 01:05:58;;;;;;;6.47;2.93;;;14.30;99.90;;;;;;5093667;28;20479;-49
2023/08/06 01:08:35;;;;;;;6.78;3.30;;;14.30;99.90;;;;;;5093437;28;20043;-48
2023/08/06 01:11:13;;;;;;;6.35;3.38;;;14.30;99.90;;;;;;5092377;28;20063;-49
2023/08/06 01:13:46;;;;;;;7.72;3.80;;;14.30;99.90;;;;;;5093168;28;20625;-49
2023/08/06 01:16:16;;;;;;;6.78;3.30;;;14.30;99.90;;;;;;5093603;28;20051;-49
2023/08/06 01:18:46;;;;;;;6.97;3.60;;;14.30;99.90;;;;;;5093662;28;20556;-49
2023/08/06 01:21:15;;;;;;;7.70;3.67;;;14.30;99.90;;;;;;5093484;28;20044;-49
2023/08/06 01:23:42;;;;;;;7.03;3.42;;;14.20;99.90;;;;;;5092221;28;20550;-49
2023/08/06 01:26:31;;;;;;;7.85;3.40;;;14.20;99.90;;;;;;5093427;28;20056;-49
2023/08/06 01:29:10;;;;;;;7.65;3.95;;;14.20;99.90;;;;;;5084632;28;20101;-50
2023/08/06 01:31:38;;;;;;;7.10;4.10;;;14.20;99.90;;;;;;5097185;28;20048;-48
2023/08/06 01:34:09;;;;;;;7.18;4.35;;;14.20;99.90;;;;;;5096927;28;20082;-48
2023/08/06 01:36:35;;;;;;;7.60;3.83;;;14.20;99.90;;;;;;5097346;28;20083;-48
2023/08/06 01:39:01;;;;;;;7.13;3.72;;;14.20;99.90;;;;;;5097188;28;20091;-48
2023/08/06 01:41:26;;;;;;;8.80;4.40;;;14.20;99.90;;;;;;5097129;28;20075;-48
2023/08/06 01:43:52;;;;;;;9.83;4.07;;;14.20;99.90;;;;;;5096156;28;20164;-48
2023/08/06 01:46:18;;;;;;;7.37;4.10;;;14.20;99.90;;;;;;5096883;28;20054;-49
2023/08/06 01:48:43;;;;;;;9.93;4.70;;;14.20;99.90;;;;;;5096648;28;20044;-49
2023/08/06 01:51:09;;;;;;;9.73;4.13;;;14.20;99.90;;;;;;5096593;28;20487;-48
2023/08/06 01:53:35;;;;;;;9.15;4.65;;;14.20;99.90;;;;;;5096163;28;20290;-48
2023/08/06 01:56:00;;;;;;;8.70;4.32;;;14.20;99.90;;;;;;5097006;28;20126;-48
2023/08/06 01:58:26;;;;;;;9.60;4.70;;;14.20;99.90;;;;;;5096738;28;20484;-48
2023/08/06 02:00:52;;;;;;;9.60;4.70;;;14.30;99.90;;;;;;5096663;28;20040;-48
2023/08/06 02:03:17;;;;;;;9.03;4.63;;;14.20;99.90;;;;;;5096527;28;20047;-48
2023/08/06 02:05:43;;;;;;;8.23;4.47;;;14.30;99.90;;;;;;5096485;28;20044;-51
2023/08/06 02:08:09;;;;;;;9.03;5.17;;;14.30;99.90;;;;;;5096941;28;20048;-48
2023/08/06 02:10:35;;;;;;;10.10;5.00;;;14.30;99.90;;;;;;5096464;28;20356;-48
2023/08/06 02:13:00;;;;;;;8.13;4.60;;;14.30;99.90;;;;;;5095512;28;20036;-53
2023/08/06 02:15:26;;;;;;;7.57;4.38;;;14.30;99.90;;;;;;5096435;28;20052;-50
2023/08/06 02:17:52;;;;;;;8.23;5.17;;;14.30;99.90;;;;;;5096154;28;20394;-50
2023/08/06 02:20:17;;;;;;;8.37;4.57;;;14.30;99.90;;;;;;5096003;28;20319;-48
2023/08/06 02:22:43;;;;;;;9.32;5.45;;;14.30;99.90;;;;;;5096664;28;20044;-48
2023/08/06 02:25:09;;;;;;;8.13;4.60;;;14.30;99.90;;;;;;5096277;28;20549;-48
2023/08/06 02:27:34;;;;;;;7.97;4.80;;;14.30;99.90;;;;;;5096318;28;20672;-48
2023/08/06 02:30:00;;;;;;;10.02;5.40;;;14.30;99.90;;;;;;5096110;28;20051;-48
2023/08/06 02:32:26;;;;;;;9.25;5.05;;;14.30;99.90;;;;;;5095080;28;20048;-51
2023/08/06 02:34:52;;;;;;;10.07;5.40;;;14.30;99.90;;;;;;5095836;28;20083;-50
2023/08/06 02:37:18;;;;;;;8.37;4.97;;;14.40;99.90;;;;;;5096020;28;20087;-50
2023/08/06 02:39:43;;;;;;;8.57;5.10;;;14.30;99.90;;;;;;5093802;28;20048;-48
2023/08/06 02:42:09;;;;;;;8.33;4.90;;;14.30;99.90;;;;;;5095701;28;20039;-50
2023/08/06 02:44:35;;;;;;;9.90;4.72;;;14.30;99.90;;;;;;5095779;28;20089;-49
2023/08/06 02:47:01;;;;;;;9.02;5.43;;;14.40;99.90;;;;;;5095796;28;20394;-51
2023/08/06 02:49:27;;;;;;;9.30;4.82;;;14.40;99.90;;;;;;5094579;28;20198;-49
2023/08/06 02:51:53;;;;;;;9.43;5.05;;;14.30;99.90;;;;;;5095554;28;20130;-48
2023/08/06 02:54:19;;;;;;;8.27;4.85;;;14.40;99.90;;;;;;5095721;28;20132;-48
2023/08/06 02:56:47;;;;;;;8.88;4.97;;;14.40;99.90;;;;;;5095647;28;20051;-48
2023/08/06 02:59:13;;;;;;;11.05;4.88;;;14.40;99.90;;;;;;5095467;28;20047;-48
2023/08/06 03:01:39;;;;;;;8.90;5.57;;;14.40;99.90;;;;;;5095298;28;20063;-47
2023/08/06 03:04:05;;;;;;;9.48;5.40;;;14.40;99.90;;;;;;5095227;28;20052;-48
2023/08/06 03:06:31;;;;;;;9.32;5.15;;;14.40;99.90;;;;;;5095454;28;20437;-48
2023/08/06 03:08:56;;;;;;;9.23;5.32;;;14.40;99.90;;;;;;5095087;28;20044;-47
2023/08/06 03:11:22;;;;;;;9.13;5.33;;;14.40;99.90;;;;;;5094404;28;20055;-48
2023/08/06 03:13:48;;;;;;;11.40;5.60;;;14.40;99.90;;;;;;5095373;28;20475;-47
2023/08/06 03:16:14;;;;;;;10.15;5.30;;;14.40;99.90;;;;;;5095173;28;20629;-47
2023/08/06 03:18:40;;;;;;;10.85;5.65;;;14.40;99.90;;;;;;5095039;28;20090;-47
2023/08/06 03:21:06;;;;;;;9.98;4.75;;;14.40;99.90;;;;;;5095314;28;20048;-48
2023/08/06 03:23:31;;;;;;;8.70;4.80;;;14.40;99.90;;;;;;5094881;28;20044;-48
2023/08/06 03:26:04;;;;;;;7.72;4.28;;;14.40;99.90;;;;;;5094177;28;20121;-47
2023/08/06 03:28:29;;;;;;;8.25;4.60;;;14.40;99.90;;;;;;5095174;28;20397;-48
2023/08/06 03:31:02;;;;;;;9.63;4.82;;;14.40;99.90;;;;;;5094899;28;20131;-48
2023/08/06 03:33:28;;;;;;;8.13;4.50;;;14.40;99.90;;;;;;5094811;28;20534;-47
2023/08/06 03:35:54;;;;;;;7.18;4.18;;;14.40;99.90;;;;;;5094786;28;20046;-48
2023/08/06 03:38:19;;;;;;;8.05;4.35;;;14.40;99.90;;;;;;5094869;28;20044;-47
2023/08/06 03:40:46;;;;;;;7.43;4.20;;;14.40;99.90;;;;;;5093839;28;20044;-49
2023/08/06 03:43:12;;;;;;;8.98;4.80;;;14.40;99.90;;;;;;5094685;28;20490;-48
2023/08/06 03:45:38;;;;;;;8.75;4.63;;;14.40;99.90;;;;;;5094530;28;20129;-48
2023/08/06 03:48:04;;;;;;;7.80;4.30;;;14.40;99.90;;;;;;5094694;28;20086;-47
2023/08/06 03:50:29;;;;;;;8.77;4.68;;;14.40;99.90;;;;;;5094462;28;20274;-48
2023/08/06 03:52:55;;;;;;;7.80;3.83;;;14.40;99.90;;;;;;5094494;28;20055;-48
2023/08/06 03:55:21;;;;;;;9.30;4.85;;;14.30;99.90;;;;;;5094495;28;20295;-47
2023/08/06 03:57:47;;;;;;;8.90;4.72;;;14.40;99.90;;;;;;5094524;28;20502;-48
2023/08/06 04:00:13;;;;;;;9.63;4.35;;;14.30;99.90;;;;;;5094059;28;20040;-48
2023/08/06 04:02:38;;;;;;;7.97;4.10;;;14.30;99.90;;;;;;5094756;28;20040;-48
2023/08/06 04:05:04;;;;;;;7.37;4.03;;;14.30;99.90;;;;;;5094323;28;20115;-47
2023/08/06 04:07:30;;;;;;;7.28;4.20;;;14.30;99.90;;;;;;5094255;28;20289;-48
2023/08/06 04:09:58;;;;;;;9.23;4.10;;;14.30;99.90;;;;;;5093674;28;20146;-47
2023/08/06 04:12:24;;;;;;;8.07;4.45;;;14.30;99.90;;;;;;5094249;28;20360;-47
2023/08/06 04:14:51;;;;;;;9.52;4.68;;;14.30;99.90;;;;;;5092839;28;20131;-47
2023/08/06 04:17:21;;;;;;;7.68;4.03;;;14.30;99.90;;;;;;5094137;28;20499;-48
2023/08/06 04:19:51;;;;;;;6.57;3.65;;;14.40;99.90;;;;;;5094108;28;20105;-47
2023/08/06 04:22:17;;;;;;;8.18;3.85;;;14.40;99.90;;;;;;5094124;28;20126;-47
2023/08/06 04:24:43;;;;;;;6.75;3.67;;;14.40;99.90;;;;;;5094594;28;20048;-48
2023/08/06 04:27:13;;;;;;;7.78;3.78;;;14.40;99.90;;;;;;5093950;28;20055;-47
2023/08/06 04:29:39;;;;;;;6.32;3.30;;;14.40;99.90;;;;;;5093745;28;20054;-47
2023/08/06 04:32:07;;;;;;;7.95;3.88;;;14.40;99.90;;;;;;5092895;28;20055;-47
2023/08/06 04:34:33;;;;;;;7.65;3.58;;;14.40;99.90;;;;;;5093825;28;20487;-48
2023/08/06 04:36:59;;;;;;;9.73;4.15;;;14.40;99.90;;;;;;5094269;28;20046;-47
2023/08/06 04:39:25;;;;;;;;;;;14.50;99.90;;;;;;5094233;28;20063;-47
2023/08/06 04:41:51;;;;;;;6.80;3.58;;;14.40;99.90;;;;;;5093771;28;19920;-47
2023/08/06 04:44:16;;;;;;;6.67;3.77;;;14.40;99.90;;;;;;5093735;28;20126;-47
2023/08/06 04:46:42;;;;;;;7.23;3.87;;;14.40;99.90;;;;;;5093951;28;20410;-47
2023/08/06 04:49:08;;;;;;;8.30;4.00;;;14.40;99.90;;;;;;5093587;28;20278;-47
2023/08/06 04:51:33;;;;;;;7.75;4.00;;;14.40;99.90;;;;;;5092613;28;20142;-48
2023/08/06 04:53:59;;;;;;;8.23;3.83;;;14.50;99.90;;;;;;5093753;28;20083;-47
2023/08/06 04:56:25;;;;;;;7.43;4.13;;;14.40;99.90;;;;;;5093601;28;20278;-47
2023/08/06 04:58:51;;;;;;;8.13;4.68;;;14.50;99.90;;;;;;5093432;28;20406;-47
2023/08/06 05:01:16;;;;;;;9.40;3.95;;;14.40;99.90;;;;;;5093725;28;20052;-47
2023/08/06 05:03:42;;;;;;;7.30;4.00;;;14.40;99.90;;;;;;5096502;28;20040;-47
2023/08/06 05:06:08;;;;;;;8.03;4.20;;;14.40;99.90;;;;;;5097769;28;20367;-48
2023/08/06 05:08:34;;;;;;;7.78;4.07;;;14.40;99.90;;;;;;5097752;28;20048;-47
2023/08/06 05:10:59;;;;;;;6.20;3.50;;;14.40;99.90;;;;;;5096351;28;20047;-47
2023/08/06 05:13:25;;;;;;;7.10;3.83;;;14.40;99.90;;;;;;5097352;28;20749;-47
2023/08/06 05:15:53;;;;;;;7.43;3.80;;;14.40;99.90;;;;;;5097572;28;20044;-47
2023/08/06 05:18:19;;;;;;;7.00;3.72;;;14.30;99.90;;;;;;5097543;28;20048;-47
2023/08/06 05:20:45;;;;;;;7.07;3.60;;;14.30;99.90;;;;;;5097396;28;20044;-47
2023/08/06 05:23:11;;;;;;;7.30;4.45;;;14.30;99.90;;;;;;5097672;28;20044;-47
2023/08/06 05:25:40;;;;;;;7.50;4.13;;;14.30;99.90;;;;;;5095980;28;20436;-47
2023/08/06 05:28:06;;;;;;;6.15;3.17;;;14.30;99.90;;;;;;5079365;28;20473;-47
2023/08/06 05:30:31;;;;;;;8.02;3.88;;;14.30;99.90;;;;;;5097354;28;20090;-47
2023/08/06 05:32:57;;;;;;;8.50;4.07;;;14.40;99.90;;;;;;5097268;28;20040;-47
2023/08/06 05:35:23;;;;;;;6.22;3.50;;;14.40;99.90;;;;;;5097078;28;20391;-47
2023/08/06 05:37:50;;;;;;;7.47;3.80;;;14.40;99.90;;;;;;5097075;28;20044;-46
2023/08/06 05:40:16;;;;;;;7.15;3.85;;;14.40;99.90;;;;;;5096987;28;20054;-47
2023/08/06 05:42:41;;;;;;;7.70;3.90;;;14.50;99.90;;;;;;5095630;28;20047;-47
2023/08/06 05:45:08;;;;;;;7.43;4.07;;;14.50;99.90;;;;;;5096873;28;20044;-46
2023/08/06 05:47:34;;;;;;;6.55;3.65;;;14.50;99.90;;;;;;5096993;28;20071;-47
2023/08/06 05:49:59;;;;;;;6.90;3.60;;;14.60;99.90;;;;;;5096987;28;20043;-47
2023/08/06 05:52:25;;;;;;;6.57;3.35;;;14.60;99.90;;;;;;5096765;28;20044;-47
2023/08/06 05:54:51;;;;;;;5.87;3.20;;;14.70;99.90;;;;;;5096790;28;20051;-47
2023/08/06 05:57:17;;;;;;;6.45;3.67;;;14.80;99.90;;;;;;5096484;28;20347;-48
2023/08/06 05:59:43;;;;;;;6.63;3.50;;;15.10;99.90;;;;;;5096661;28;20127;-49
2023/08/06 06:02:09;;;;;;;9.43;3.75;;;15.50;99.90;;;;;;5096656;28;20047;-47
2023/08/06 06:04:35;;;;;;;8.60;3.93;;;16.00;99.90;;;;;;5096933;28;20400;-47
2023/08/06 06:07:00;;;;;;;7.07;3.58;;;16.10;99.90;;;;;;5096564;28;20051;-47
2023/08/06 06:09:26;;;;;;;5.60;3.00;;;16.10;99.90;;;;;;5095525;28;20059;-47
2023/08/06 06:11:52;;;;;;;5.97;3.25;;;16.00;99.90;;;;;;5096299;28;20047;-47
2023/08/06 06:14:19;;;;;;;6.75;3.25;;;15.90;99.90;;;;;;5096314;28;20044;-48
2023/08/06 06:16:45;;;;;;;6.20;2.90;;;15.90;99.90;;;;;;5096384;28;20079;-47
2023/08/06 06:19:11;;;;;;;7.75;3.30;;;15.80;99.90;;;;;;5095238;28;20040;-47
2023/08/06 06:21:38;;;;;;;7.75;3.33;;;15.70;99.90;;;;;;5096380;28;20088;-46
2023/08/06 06:24:05;;;;;;;6.75;3.03;;;15.70;99.90;;;;;;5095805;28;20562;-48
2023/08/06 06:26:31;;;;;;;6.03;2.97;;;15.60;99.90;;;;;;5095219;28;20048;-47
2023/08/06 06:28:57;;;;;;;7.45;3.42;;;15.60;99.90;;;;;;5096206;28;20048;-48
2023/08/06 06:31:23;;;;;;;6.75;3.30;;;15.60;99.90;;;;;;5096021;28;20047;-47
2023/08/06 06:33:48;;;;;;;6.40;3.30;;;15.60;99.90;;;;;;5096144;28;20079;-47
2023/08/06 06:36:14;;;;;;;6.67;3.17;;;15.60;99.90;;;;;;5095999;28;20048;-47
2023/08/06 06:38:39;;;;;;;4.83;2.80;;;15.60;99.90;;;;;;5094920;28;20313;-47
2023/08/06 06:41:05;;;;;;;6.00;3.07;;;15.60;99.90;;;;;;5094671;28;20339;-47
2023/08/06 06:43:31;;;;;;;7.60;3.40;;;15.60;99.90;;;;;;5095963;28;20301;-46
2023/08/06 06:46:00;;;;;;;6.43;3.20;;;15.60;99.90;;;;;;5094693;28;20074;-47
2023/08/06 06:48:28;;;;;;;6.32;2.97;;;15.60;99.90;;;;;;5095675;28;20130;-47
2023/08/06 06:50:54;;;;;;;6.28;3.10;;;15.60;99.90;;;;;;5095748;28;20048;-47
2023/08/06 06:53:19;;;;;;;5.57;3.17;;;15.60;99.90;;;;;;5095399;28;20089;-47
2023/08/06 06:55:48;;;;;;;6.63;2.85;;;15.70;99.90;;;;;;5095691;28;20051;-47
2023/08/06 06:58:16;;;;;;;6.47;2.90;;;15.70;99.90;;;;;;5095642;28;20122;-47
2023/08/06 07:00:42;;;;;;;5.75;3.20;;;15.80;99.90;;;;;;5095538;28;20044;-48
2023/08/06 07:03:07;;;;;;;5.22;2.67;;;15.90;99.90;;;;;;5095481;28;20048;-47
2023/08/06 07:05:33;;;;;;;5.97;2.75;;;16.00;99.90;;;;;;5095342;28;20127;-46
2023/08/06 07:07:59;;;;;;;6.07;2.92;;;16.00;99.90;;;;;;5095208;28;20140;-48
2023/08/06 07:10:25;;;;;;;6.20;2.70;;;16.00;99.90;;;;;;5095415;28;20051;-48
2023/08/06 07:12:51;;;;;;;;;;;16.10;99.90;;;;;;5094846;28;20130;-47
2023/08/06 07:15:17;;;;;;;5.40;2.78;;;16.20;99.90;;;;;;5095208;28;20007;-47
2023/08/06 07:17:43;;;;;;;;;;;16.30;99.90;;;;;;5095562;28;20056;-48
2023/08/06 07:20:09;;;;;;;6.05;2.78;;;16.40;99.90;;;;;;5095085;28;19920;-47
2023/08/06 07:22:35;;;;;;;5.40;2.40;;;16.50;99.90;;;;;;5095116;28;20056;-48
2023/08/06 07:25:01;;;;;;;6.43;2.92;;;16.60;99.90;;;;;;5094515;28;20082;-48
2023/08/06 07:27:27;;;;;;;6.32;2.90;;;16.70;99.90;;;;;;5094982;28;20048;-48
2023/08/06 07:29:52;;;;;;;4.85;2.50;;;16.70;99.90;;;;;;5095055;28;20479;-48
2023/08/06 07:32:18;;;;;;;6.03;2.90;;;16.80;99.90;;;;;;5094914;28;20046;-48
2023/08/06 07:34:44;;;;;;;6.43;2.67;;;16.80;99.90;;;;;;5093667;28;20040;-49
2023/08/06 07:37:09;;;;;;;5.63;2.63;;;16.70;99.90;;;;;;5093515;28;20096;-48
2023/08/06 07:39:37;;;;;;;5.03;2.67;;;16.70;99.90;;;;;;5094527;28;20044;-48
2023/08/06 07:42:05;;;;;;;6.15;3.28;;;16.60;99.90;;;;;;5094801;28;20479;-47
2023/08/06 07:44:31;;;;;;;6.88;2.75;;;16.60;99.90;;;;;;5094792;28;20040;-48
2023/08/06 07:46:57;;;;;;;6.07;3.25;;;16.60;99.90;;;;;;5094735;28;20048;-48
2023/08/06 07:49:22;;;;;;;5.55;2.72;;;16.50;99.90;;;;;;5094606;28;20044;-48
2023/08/06 07:51:48;;;;;;;7.50;3.25;;;16.40;99.90;;;;;;5094549;28;20134;-49
2023/08/06 07:54:14;;;;;;;5.75;2.92;;;16.40;99.90;;;;;;5093430;28;20414;-48
2023/08/06 07:56:39;;;;;;;6.97;3.45;;;16.40;99.90;;;;;;5094303;28;20044;-48
2023/08/06 07:59:05;;;;;;;5.88;3.13;;;16.40;99.90;;;;;;5094497;28;20044;-48
2023/08/06 08:01:31;;;;;;;7.97;3.40;;;16.50;99.90;;;;;;5094330;28;20051;-50
2023/08/06 08:03:56;;;;;;;6.40;3.33;;;16.50;99.90;;;;;;5093496;28;20351;-47
2023/08/06 08:06:23;;;;;;;7.00;4.20;;;16.60;99.90;;;;;;5094255;28;20115;-48
2023/08/06 08:08:49;;;;;;;7.15;4.05;;;16.60;99.90;;;;;;5094012;28;20040;-47
2023/08/06 08:11:15;;;;;;;6.85;3.75;;;16.60;99.90;;;;;;5094413;28;20109;-47
2023/08/06 08:13:41;;;;;;;7.57;4.95;;;16.70;99.90;;;;;;5094190;28;20437;-51
2023/08/06 08:16:07;;;;;;;6.95;4.38;;;16.70;99.90;;;;;;5093923;28;20123;-48
2023/08/06 08:18:33;;;;;;;6.95;3.92;;;16.70;99.90;;;;;;5093905;28;20040;-50
2023/08/06 08:20:59;;;;;;;6.70;3.90;;;16.70;99.90;;;;;;5092902;28;20044;-47
2023/08/06 08:23:25;;;;;;;6.65;3.53;;;16.80;99.90;;;;;;5094563;28;20048;-50
2023/08/06 08:25:51;;;;;;;5.00;3.00;;;16.80;99.90;;;;;;5094231;28;20055;-50
2023/08/06 08:28:17;;;;;;;5.78;3.53;;;16.80;99.90;;;;;;5094091;28;20052;-50
2023/08/06 08:30:42;;;;;;;6.78;3.40;;;17.00;99.90;;;;;;5093852;28;20052;-47
2023/08/06 08:33:08;;;;;;;7.85;4.00;;;17.00;99.90;;;;;;5093713;28;20040;-50
2023/08/06 08:35:34;;;;;;;6.53;3.90;;;17.10;99.90;;;;;;5093699;28;20059;-46
2023/08/06 08:38:00;;;;;;;7.25;4.00;;;17.10;99.90;;;;;;5094183;28;20151;-46
2023/08/06 08:40:31;;;;;;;6.47;3.25;;;17.10;99.90;;;;;;5092977;28;20488;-46
2023/08/06 08:42:58;;;;;;;5.85;2.65;;;17.20;99.90;;;;;;5093808;28;20376;-47
2023/08/06 08:45:28;;;;;;;5.18;2.75;;;17.10;99.90;;;;;;5093801;28;20040;-45
2023/08/06 08:47:54;;;;;;;4.80;2.58;;;17.20;99.90;;;;;;5093632;28;20062;-45
2023/08/06 08:50:20;;;;;;;3.97;2.10;;;17.20;99.90;;;;;;5093726;28;20483;-46
2023/08/06 08:52:48;;;;;;;4.32;2.10;;;17.20;99.90;;;;;;5092428;28;20051;-46
2023/08/06 08:55:16;;;;;;;4.47;2.08;;;17.30;99.90;;;;;;5093512;28;20471;-46
2023/08/06 08:57:42;;;;;;;4.72;2.42;;;17.30;99.90;;;;;;5092540;28;20052;-45
2023/08/06 09:00:08;;;;;;;5.18;2.35;;;17.40;99.90;;;;;;5093589;28;20395;-46
2023/08/06 09:02:34;;;;;;;3.33;1.58;;;17.50;99.90;;;;;;5093472;28;20407;-46
2023/08/06 09:05:02;;;;;;;3.30;1.40;;;17.50;99.90;;;;;;5093181;28;20040;-46
2023/08/06 09:07:34;;;;;;;4.00;1.30;;;17.50;99.90;;;;;;5092611;28;20055;-46
2023/08/06 09:10:03;;;;;;;2.00;0.98;;;17.60;99.90;;;;;;5093525;28;20083;-45
2023/08/06 09:12:29;;;;;;;3.25;1.42;;;17.70;99.90;;;;;;5093559;28;20048;-47
2023/08/06 09:14:55;;;;;;;3.72;1.10;;;17.70;99.90;;;;;;5093421;28;20047;-47
2023/08/06 09:17:21;;;;;;;3.30;1.30;;;17.70;99.90;;;;;;5093342;28;20052;-46
2023/08/06 09:19:48;;;;;;;2.33;0.95;;;17.70;99.90;;;;;;5093677;28;20044;-48
2023/08/06 09:22:14;;;;;;;3.75;1.48;;;17.80;99.90;;;;;;5075855;28;20131;-45
2023/08/06 09:24:41;;;;;;;3.03;1.20;;;17.90;99.90;;;;;;5093164;28;20056;-48
2023/08/06 09:27:16;;;;;;;3.63;1.30;;;18.00;99.90;;;;;;5093317;28;20044;-47
2023/08/06 09:29:46;;;;;;;2.53;1.20;;;18.10;99.90;;;;;;5093469;28;20040;-47
2023/08/06 09:32:12;;;;;;;2.80;1.30;;;18.10;99.90;;;;;;5093459;28;20040;-46
2023/08/06 09:34:43;;;;;;;3.05;1.13;;;18.10;99.90;;;;;;5093275;28;20047;-46
2023/08/06 09:37:10;;;;;;;2.55;1.25;;;18.10;99.90;;;;;;5093370;28;20044;-46
2023/08/06 09:39:38;;;;;;;3.15;1.27;;;18.20;99.90;;;;;;5093339;28;20055;-47
2023/08/06 09:42:04;;;;;;;3.70;1.30;;;18.10;99.90;;;;;;5093189;28;20403;-48
2023/08/06 09:44:31;;;;;;;2.58;0.93;;;18.10;99.90;;;;;;5092884;28;20040;-48
2023/08/06 09:47:02;;;;;;;3.92;1.30;;;18.20;99.90;;;;;;5093589;28;20142;-47
2023/08/06 09:49:36;;;;;;;3.13;1.00;;;18.20;99.90;;;;;;5095453;28;20403;-47
2023/08/06 09:52:02;;;;;;;2.92;1.23;;;18.20;99.90;;;;;;5097165;28;20097;-46
2023/08/06 09:54:30;;;;;;;1.65;0.90;;;18.30;99.90;;;;;;5096715;28;20484;-47
2023/08/06 09:56:56;;;;;;;1.27;0.65;;;18.30;99.90;;;;;;5097303;28;20056;-47
2023/08/06 09:59:25;;;;;;;;;;;18.30;99.90;;;;;;5097218;28;20055;-47
2023/08/06 10:01:51;;;;;;;4.13;0.73;;;18.30;99.90;;;;;;5096782;28;19927;-46
2023/08/06 10:04:17;;;;;;;2.22;0.90;;;18.30;99.90;;;;;;5096660;28;20048;-46
2023/08/06 10:06:47;;;;;;;2.15;0.90;;;18.40;99.90;;;;;;5096578;28;20102;-47
2023/08/06 10:09:13;;;;;;;2.75;1.30;;;18.40;99.90;;;;;;5096633;28;20135;-47
2023/08/06 10:11:39;;;;;;;2.42;1.00;;;18.50;99.90;;;;;;5095107;28;20123;-48
2023/08/06 10:14:34;;;;;;;;;;;18.50;99.90;;;;;;5096876;28;20044;-48
2023/08/06 10:17:01;;;;;;;1.60;0.80;;;18.60;99.90;;;;;;5087123;28;19926;-48
2023/08/06 10:19:28;;;;;;;2.72;1.00;;;18.60;99.90;;;;;;5096413;28;20084;-54
2023/08/06 10:22:24;;;;;;;2.72;1.10;;;18.70;99.90;;;;;;5096287;28;20087;-48
2023/08/06 10:24:56;;;;;;;1.63;0.88;;;18.80;99.90;;;;;;5083047;28;20503;-46
2023/08/06 10:27:35;;;;;;;2.50;0.95;;;18.80;99.90;;;;;;5096459;28;20079;-47
2023/08/06 10:30:30;;;;;;;2.20;0.93;;;18.80;99.90;;;;;;5096340;28;20491;-47
2023/08/06 10:32:57;;;;;;;1.83;0.70;;;18.90;99.90;;;;;;5096150;28;20522;-46
2023/08/06 10:35:43;;;;;;;2.30;0.70;;;18.90;99.90;;;;;;5096034;28;20036;-47
2023/08/06 10:38:22;;;;;;;2.28;0.80;;;18.90;99.90;;;;;;5096064;28;20510;-48
2023/08/06 10:40:48;;;;;;;2.15;0.88;;;18.90;99.90;;;;;;5095884;28;20054;-47
2023/08/06 10:43:34;;;;;;;2.38;0.88;;;18.90;99.90;;;;;;5096010;28;20048;-46
2023/08/06 10:46:04;;;;;;;2.78;0.90;;;19.00;99.90;;;;;;5096049;28;20368;-47
2023/08/06 10:48:40;;;;;;;1.83;0.88;;;19.00;99.90;;;;;;5095828;28;20055;-47
2023/08/06 10:51:11;;;;;;;1.60;0.60;;;19.00;99.90;;;;;;5094630;28;20479;-46
2023/08/06 10:53:37;;;;;;;2.72;0.90;;;19.00;99.90;;;;;;5095444;28;20456;-46
2023/08/06 10:56:22;;;;;;;1.80;0.90;;;19.10;99.90;;;;;;5095733;28;20093;-48
2023/08/06 10:58:49;;;;;;;2.42;1.00;;;19.10;99.90;;;;;;5095661;28;20050;-46
2023/08/06 11:01:15;;;;;;;1.83;0.70;;;19.10;99.90;;;;;;5093308;28;20051;-47
2023/08/06 11:03:43;;;;;;;3.60;1.02;;;19.20;99.90;;;;;;5094273;28;20048;-45
2023/08/06 11:06:16;;;;;;;2.83;1.00;;;19.20;99.90;;;;;;5095495;28;20050;-54
2023/08/06 11:08:48;;;;;;;2.17;1.17;;;19.30;99.90;;;;;;5095573;28;20491;-47
2023/08/06 11:11:15;;;;;;;1.75;0.80;;;19.30;99.90;;;;;;5094343;28;20612;-46
2023/08/06 11:13:46;;;;;;;2.67;1.02;;;19.40;99.90;;;;;;5095274;28;20047;-47
2023/08/06 11:16:14;;;;;;;2.40;0.88;;;19.50;99.90;;;;;;5095139;28;20040;-46
2023/08/06 11:18:41;;;;;;;1.83;0.80;;;19.60;99.90;;;;;;5095303;28;20406;-46
2023/08/06 11:21:07;;;;;;;1.95;0.90;;;19.70;99.90;;;;;;5095790;28;20376;-48
2023/08/06 11:23:34;;;;;;;4.22;1.10;;;19.80;99.90;;;;;;5094874;28;20044;-45
2023/08/06 11:26:00;;;;;;;2.53;1.10;;;19.80;99.90;;;;;;5095030;28;20044;-45
2023/08/06 11:28:26;;;;;;;3.20;1.13;;;19.90;99.90;;;;;;5095017;28;20048;-47
2023/08/06 11:30:53;;;;;;;3.00;0.93;;;19.90;99.90;;;;;;5094963;28;20050;-46
2023/08/06 11:33:22;;;;;;;;;;;19.90;99.90;;;;;;5095412;28;20066;-52
2023/08/06 11:35:49;;;;;;;2.05;0.70;;;20.00;99.90;;;;;;5095008;28;19965;-47
2023/08/06 11:38:16;;;;;;;3.05;0.85;;;20.10;99.90;;;;;;5094789;28;20048;-47
2023/08/06 11:40:47;;;;;;;3.38;0.90;;;20.20;99.90;;;;;;5094720;28;20411;-47
2023/08/06 11:43:13;;;;;;;2.95;1.00;;;20.20;99.90;;;;;;5094923;28;20540;-47
2023/08/06 11:45:39;;;;;;;1.73;0.68;;;20.20;99.90;;;;;;5094444;28;20043;-47
2023/08/06 11:48:06;;;;;;;2.22;0.80;;;20.20;99.90;;;;;;5094700;28;20070;-46
2023/08/06 11:50:36;;;;;;;1.85;0.85;;;20.20;99.90;;;;;;5094837;28;20054;-53
2023/08/06 11:53:02;;;;;;;1.80;0.88;;;20.20;99.90;;;;;;5094651;28;20062;-46
2023/08/06 11:55:28;;;;;;;1.42;0.70;;;20.20;99.90;;;;;;5094363;28;20048;-46
2023/08/06 11:57:54;;;;;;;2.35;0.85;;;20.30;99.90;;;;;;5094393;28;20044;-45
2023/08/06 12:00:23;;;;;;;2.05;0.80;;;20.30;99.90;;;;;;5094690;28;20050;-47
2023/08/06 12:02:50;;;;;;;1.13;0.60;;;20.40;99.90;;;;;;5094407;28;20054;-46
2023/08/06 12:05:20;;;;;;;2.38;0.77;;;20.40;99.90;;;;;;5094302;28;20109;-46
2023/08/06 12:07:48;;;;;;;2.03;0.73;;;20.40;99.90;;;;;;5094561;28;20498;-45
2023/08/06 12:10:15;;;;;;;1.75;0.80;;;20.40;99.90;;;;;;5094229;28;20567;-47
2023/08/06 12:12:41;;;;;;;1.83;0.93;;;20.40;99.90;;;;;;5094033;28;20069;-47
2023/08/06 12:15:07;;;;;;;;;;;20.60;99.90;;;;;;5095069;28;20123;-46
2023/08/06 12:17:33;;;;;;;1.77;0.70;;;20.60;99.90;;;;;;5094412;28;19978;-46
2023/08/06 12:19:59;;;;;;;2.13;0.90;;;20.60;99.90;;;;;;5094470;28;20096;-46
2023/08/06 12:22:25;;;;;;;2.03;0.90;;;20.50;99.90;;;;;;5094144;28;20074;-47
2023/08/06 12:24:51;;;;;;;2.60;0.85;;;20.60;99.90;;;;;;5094064;28;20056;-47
2023/08/06 12:27:17;;;;;;;1.95;0.95;;;20.80;99.90;;;;;;5093850;28;20058;-53
2023/08/06 12:29:44;;;;;;;2.30;0.65;;;20.90;99.90;;;;;;5094073;28;20127;-47
2023/08/06 12:32:11;;;;;;;1.50;0.70;;;21.20;99.90;;;;;;5093867;28;20495;-47
2023/08/06 12:34:41;;;;;;;2.88;0.82;;;21.30;99.90;;;;;;5093884;28;20498;-47
2023/08/06 12:37:08;;;;;;;1.58;0.80;;;21.40;99.90;;;;;;5094002;28;20127;-47
2023/08/06 12:39:35;;;;;;;2.05;0.80;;;21.50;99.90;;;;;;5093871;28;20050;-49
2023/08/06 12:42:05;;;;;;;2.25;0.73;;;21.30;99.90;;;;;;5093627;28;20066;-46
2023/08/06 12:44:31;;;;;;;2.75;0.70;;;21.20;99.90;;;;;;5094049;28;20071;-46
2023/08/06 12:46:57;;;;;;;2.03;0.75;;;21.30;99.90;;;;;;5092657;28;20395;-46